Terminal Aerodrome Forecast
Issued by NWS

Home | Current Version | Previous Version | Text Only | Print | Product List | Glossary On
Versions: 1 2 3 4 5 6 7 8 9 10 11 12 13 14 15 16 17 18 19 20 21 22 23 24 25 26 27 28 29 30 31 32 33 34 35 36 37 38
000
FTUS43 KPAH 251129
TAFOWB
TAF
KOWB 251129Z 2512/2612 16010G15KT P6SM VCSH SCT050 BKN080
     FM251500 17013G21KT P6SM -SHRA BKN035 PROB30 2521/2603 3SM
      -TSRA BR OVC030CB
     FM260300 15006KT P6SM BKN050=

USA.gov is the U.S. government's official web portal to all federal, state and local government web resources and services.